createdAt,value
2023-05-19T00:00:50.490Z,48.81
2023-05-19T00:01:48.200Z,49.12
2023-05-19T00:02:48.351Z,50.57
2023-05-19T00:03:48.158Z,50.14
2023-05-19T00:04:48.172Z,49.51
2023-05-19T00:05:48.596Z,49.02
2023-05-19T00:06:48.176Z,49.23
2023-05-19T00:07:48.144Z,48.98
2023-05-19T00:08:48.124Z,48.79
2023-05-19T00:09:48.115Z,49.21
2023-05-19T00:10:48.128Z,49.45
2023-05-19T00:11:48.113Z,49.30
2023-05-19T00:12:48.194Z,48.21
2023-05-19T00:13:48.110Z,50.07
2023-05-19T00:14:48.090Z,49.22
2023-05-19T00:15:48.138Z,48.28
2023-05-19T00:16:48.063Z,47.84
2023-05-19T00:17:48.092Z,50.23
2023-05-19T00:18:48.065Z,48.32
2023-05-19T00:19:48.160Z,48.26
2023-05-19T00:20:48.043Z,49.01
2023-05-19T00:21:48.067Z,49.10
2023-05-19T00:22:48.038Z,49.65
2023-05-19T00:23:48.017Z,50.58
2023-05-19T00:24:48.012Z,49.52
2023-05-19T00:25:48.015Z,48.35
2023-05-19T00:26:48.004Z,51.58
2023-05-19T00:27:47.999Z,49.13
2023-05-19T00:28:47.975Z,49.86
2023-05-19T00:29:47.997Z,48.69
2023-05-19T00:30:47.963Z,48.27
2023-05-19T00:31:48.017Z,49.54
2023-05-19T00:32:48.003Z,47.71
2023-05-19T00:33:47.948Z,47.99
2023-05-19T00:34:47.956Z,47.91
2023-05-19T00:35:48.108Z,48.68
2023-05-19T00:36:47.934Z,47.91
2023-05-19T00:37:47.922Z,49.53
2023-05-19T00:38:47.912Z,50.62
2023-05-19T00:39:47.912Z,50.03
2023-05-19T00:40:47.935Z,48.67
2023-05-19T00:41:47.895Z,47.91
2023-05-19T00:42:47.901Z,48.02
2023-05-19T00:43:47.874Z,48.33
2023-05-19T00:44:47.876Z,49.53
2023-05-19T00:45:47.862Z,48.31
2023-05-19T00:46:47.946Z,48.73
2023-05-19T00:47:47.872Z,49.24
2023-05-19T00:48:47.845Z,50.32
2023-05-19T00:49:47.840Z,50.67
2023-05-19T00:50:47.846Z,48.94
2023-05-19T00:51:47.848Z,49.21
2023-05-19T00:52:47.814Z,50.62
2023-05-19T00:53:47.803Z,49.76
2023-05-19T00:54:47.810Z,49.05
2023-05-19T00:55:47.800Z,49.28
2023-05-19T00:56:47.801Z,50.17
2023-05-19T00:57:47.791Z,49.63
2023-05-19T00:58:47.783Z,50.49
2023-05-19T00:59:47.764Z,52.77
2023-05-19T01:00:47.758Z,49.38
2023-05-19T01:01:47.747Z,49.52
2023-05-19T01:02:47.845Z,50.06
2023-05-19T01:03:47.808Z,48.67
2023-05-19T01:04:47.734Z,49.13
2023-05-19T01:05:47.713Z,49.25
2023-05-19T01:06:47.720Z,48.33
2023-05-19T01:07:47.721Z,48.74
2023-05-19T01:08:47.717Z,48.02
2023-05-19T01:09:47.692Z,48.19
2023-05-19T01:10:47.686Z,48.20
2023-05-19T01:11:47.681Z,48.86
2023-05-19T01:12:47.664Z,49.38
2023-05-19T01:13:47.690Z,49.06
2023-05-19T01:14:47.662Z,49.33
2023-05-19T01:15:47.649Z,47.65
2023-05-19T01:16:47.717Z,48.22
2023-05-19T01:17:47.700Z,48.02
2023-05-19T01:18:47.724Z,48.87
2023-05-19T01:19:47.622Z,48.14
2023-05-19T01:20:47.616Z,48.85
2023-05-19T01:21:47.609Z,48.38
2023-05-19T01:22:47.622Z,48.00
2023-05-19T01:23:48.593Z,48.51
2023-05-19T01:24:47.583Z,49.86
2023-05-19T01:25:47.576Z,50.29
2023-05-19T01:26:47.575Z,49.42
2023-05-19T01:27:47.617Z,48.51
2023-05-19T01:28:48.556Z,48.13
2023-05-19T01:29:47.557Z,48.83
2023-05-19T01:30:47.557Z,49.87
2023-05-19T01:31:47.588Z,49.39
2023-05-19T01:32:47.559Z,50.26
2023-05-19T01:33:47.555Z,49.92
2023-05-19T01:34:47.533Z,48.75
2023-05-19T01:35:47.520Z,49.37
2023-05-19T01:36:47.513Z,49.47
2023-05-19T01:37:47.497Z,49.33
2023-05-19T01:38:47.517Z,50.53
2023-05-19T01:39:47.513Z,51.67
2023-05-19T01:40:47.484Z,51.04
2023-05-19T01:41:47.494Z,52.48
2023-05-19T01:42:47.467Z,50.66
2023-05-19T01:43:48.537Z,49.43
2023-05-19T01:44:47.465Z,49.50
2023-05-19T01:45:47.473Z,48.68
2023-05-19T01:46:47.519Z,49.74
2023-05-19T01:47:47.496Z,51.45
2023-05-19T01:48:47.436Z,48.97
2023-05-19T01:49:47.451Z,50.02
2023-05-19T01:50:47.417Z,50.27
2023-05-19T01:51:47.419Z,49.02
2023-05-19T01:52:47.418Z,48.71
2023-05-19T01:53:47.398Z,48.48
2023-05-19T01:54:47.412Z,49.04
2023-05-19T01:55:47.391Z,49.29
2023-05-19T01:56:47.398Z,49.64
2023-05-19T01:57:47.378Z,48.68
2023-05-19T01:58:47.387Z,50.68
2023-05-19T01:59:47.374Z,49.63
2023-05-19T02:00:47.377Z,49.92
2023-05-19T02:01:47.418Z,49.03
2023-05-19T02:02:47.384Z,49.29
2023-05-19T02:03:47.329Z,50.72
2023-05-19T02:04:47.348Z,51.30
2023-05-19T02:05:47.328Z,51.05
2023-05-19T02:06:47.318Z,50.16
2023-05-19T02:07:47.303Z,52.28
2023-05-19T02:08:47.304Z,51.14
2023-05-19T02:09:47.280Z,49.68
2023-05-19T02:10:47.293Z,50.36
2023-05-19T02:11:47.278Z,51.00
2023-05-19T02:12:47.258Z,51.50
2023-05-19T02:13:48.272Z,52.66
2023-05-19T02:14:47.256Z,49.69
2023-05-19T02:15:47.298Z,52.93
2023-05-19T02:16:47.250Z,51.46
2023-05-19T02:17:47.348Z,49.95
2023-05-19T02:18:47.285Z,51.99
2023-05-19T02:19:47.238Z,49.69
2023-05-19T02:20:47.230Z,51.49
2023-05-19T02:21:47.209Z,51.21
2023-05-19T02:22:47.197Z,52.87
2023-05-19T02:23:47.189Z,54.18
2023-05-19T02:24:47.179Z,52.08
2023-05-19T02:25:47.170Z,52.89
2023-05-19T02:26:47.198Z,53.85
2023-05-19T02:27:47.167Z,56.24
2023-05-19T02:28:47.160Z,55.22
2023-05-19T02:29:47.150Z,55.02
2023-05-19T02:30:47.149Z,55.89
2023-05-19T02:31:47.175Z,54.88
2023-05-19T02:32:47.287Z,57.02
2023-05-19T02:33:47.121Z,57.33
2023-05-19T02:34:47.119Z,56.39
2023-05-19T02:35:47.106Z,55.92
2023-05-19T02:36:47.115Z,54.84
2023-05-19T02:37:47.110Z,55.64
2023-05-19T02:38:47.084Z,53.76
2023-05-19T02:39:47.101Z,56.57
2023-05-19T02:40:47.086Z,55.17
2023-05-19T02:41:47.071Z,55.22
2023-05-19T02:42:47.085Z,56.53
2023-05-19T02:43:47.050Z,54.78
2023-05-19T02:44:47.049Z,54.58
2023-05-19T02:45:47.048Z,53.61
2023-05-19T02:46:47.170Z,53.36
2023-05-19T02:47:47.069Z,53.68
2023-05-19T02:48:47.026Z,59.04
2023-05-19T02:49:47.009Z,54.74
2023-05-19T02:50:48.001Z,55.37
2023-05-19T02:51:47.007Z,56.19
2023-05-19T02:52:46.987Z,56.73
2023-05-19T02:53:46.978Z,54.94
2023-05-19T02:54:46.971Z,54.95
2023-05-19T02:55:46.983Z,55.29
2023-05-19T02:56:46.965Z,53.93
2023-05-19T02:57:46.953Z,56.08
2023-05-19T02:58:46.950Z,55.27
2023-05-19T02:59:46.949Z,56.18
2023-05-19T03:00:46.957Z,55.91
2023-05-19T03:01:46.944Z,55.31
2023-05-19T03:02:47.006Z,53.54
2023-05-19T03:03:47.049Z,54.82
2023-05-19T03:04:46.905Z,53.91
2023-05-19T03:05:46.906Z,53.72
2023-05-19T03:06:46.915Z,55.24
2023-05-19T03:07:46.885Z,54.07
2023-05-19T03:08:46.885Z,54.43
2023-05-19T03:09:46.869Z,54.45
2023-05-19T03:10:46.867Z,54.19
2023-05-19T03:11:46.868Z,54.33
2023-05-19T03:12:46.860Z,56.26
2023-05-19T03:13:46.855Z,55.15
2023-05-19T03:14:46.850Z,55.53
2023-05-19T03:15:46.836Z,55.19
2023-05-19T03:16:46.985Z,55.33
2023-05-19T03:17:46.932Z,55.53
2023-05-19T03:18:46.852Z,56.51
2023-05-19T03:19:46.810Z,56.73
2023-05-19T03:20:46.793Z,55.85
2023-05-19T03:21:46.820Z,54.30
2023-05-19T03:22:46.794Z,55.34
2023-05-19T03:23:46.779Z,56.59
2023-05-19T03:24:46.783Z,57.25
2023-05-19T03:25:46.778Z,55.64
2023-05-19T03:26:46.777Z,54.66
2023-05-19T03:27:46.759Z,57.51
2023-05-19T03:28:46.751Z,56.56
2023-05-19T03:29:46.751Z,54.69
2023-05-19T03:30:46.732Z,55.03
2023-05-19T03:31:46.726Z,56.02
2023-05-19T03:32:46.824Z,54.23
2023-05-19T03:33:46.708Z,57.84
2023-05-19T03:34:46.704Z,56.31
2023-05-19T03:35:46.742Z,57.15
2023-05-19T03:36:46.701Z,56.97
2023-05-19T03:37:46.708Z,57.78
2023-05-19T03:38:46.690Z,56.07
2023-05-19T03:39:46.698Z,56.94
2023-05-19T03:40:46.695Z,58.13
2023-05-19T03:41:46.688Z,56.53
2023-05-19T03:42:46.657Z,55.75
2023-05-19T03:43:46.653Z,55.93
2023-05-19T03:44:46.641Z,56.35
2023-05-19T03:45:46.694Z,55.47
2023-05-19T03:46:46.640Z,57.01
2023-05-19T03:47:46.796Z,57.02
2023-05-19T03:48:46.617Z,57.74
2023-05-19T03:49:46.611Z,55.29
2023-05-19T03:50:46.605Z,57.59
2023-05-19T03:51:46.772Z,57.90
2023-05-19T03:52:46.654Z,56.10
2023-05-19T03:53:46.589Z,56.78
2023-05-19T03:54:46.613Z,54.98
2023-05-19T03:55:46.571Z,57.26
2023-05-19T03:56:46.573Z,56.15
2023-05-19T03:57:46.565Z,57.95
2023-05-19T03:58:46.548Z,57.66
2023-05-19T03:59:46.701Z,56.32
2023-05-19T04:00:46.540Z,57.57
2023-05-19T04:01:46.534Z,58.11
2023-05-19T04:02:46.625Z,57.19
2023-05-19T04:03:46.651Z,58.04
2023-05-19T04:04:46.609Z,57.52
2023-05-19T04:05:46.569Z,56.89
2023-05-19T04:06:46.505Z,57.86
2023-05-19T04:07:46.507Z,57.75
2023-05-19T04:08:46.495Z,56.75
2023-05-19T04:09:46.506Z,57.14
2023-05-19T04:10:46.498Z,57.08
2023-05-19T04:11:46.475Z,57.23
2023-05-19T04:12:46.458Z,57.70
2023-05-19T04:13:46.459Z,58.08
2023-05-19T04:14:46.482Z,57.51
2023-05-19T04:15:46.481Z,56.73
2023-05-19T04:16:46.440Z,56.58
2023-05-19T04:17:46.496Z,55.88
2023-05-19T04:18:46.657Z,56.68
2023-05-19T04:19:46.436Z,56.40
2023-05-19T04:20:46.429Z,55.73
2023-05-19T04:21:46.417Z,57.20
2023-05-19T04:22:46.405Z,56.26
2023-05-19T04:23:46.439Z,55.85
2023-05-19T04:24:46.387Z,56.16
2023-05-19T04:25:46.391Z,54.94
2023-05-19T04:26:46.382Z,56.41
2023-05-19T04:27:46.371Z,56.01
2023-05-19T04:28:46.372Z,55.17
2023-05-19T04:29:46.360Z,55.62
2023-05-19T04:30:46.463Z,56.64
2023-05-19T04:31:46.388Z,56.96
2023-05-19T04:32:46.361Z,56.87
2023-05-19T04:33:46.336Z,57.68
2023-05-19T04:34:46.360Z,58.18
2023-05-19T04:35:46.346Z,57.23
2023-05-19T04:36:46.321Z,56.59
2023-05-19T04:37:46.316Z,57.23
2023-05-19T04:38:46.303Z,56.82
2023-05-19T04:39:46.293Z,56.19
2023-05-19T04:40:46.312Z,56.42
2023-05-19T04:41:46.276Z,55.67
2023-05-19T04:42:46.295Z,57.74
2023-05-19T04:43:46.276Z,57.32
2023-05-19T04:44:46.277Z,57.17
2023-05-19T04:45:46.252Z,55.91
2023-05-19T04:46:46.286Z,58.64
2023-05-19T04:47:46.279Z,59.47
2023-05-19T04:48:46.233Z,56.71
2023-05-19T04:49:46.223Z,57.76
2023-05-19T04:50:46.216Z,57.59
2023-05-19T04:51:46.256Z,58.04
2023-05-19T04:52:46.221Z,56.68
2023-05-19T04:53:46.214Z,56.51
2023-05-19T04:54:46.200Z,57.71
2023-05-19T04:55:46.199Z,59.10
2023-05-19T04:56:46.194Z,57.03
2023-05-19T04:57:46.199Z,57.76
2023-05-19T04:58:46.189Z,56.81
2023-05-19T04:59:46.168Z,55.38
2023-05-19T05:00:46.156Z,60.46
2023-05-19T05:01:46.214Z,63.14
2023-05-19T05:02:46.259Z,64.21
2023-05-19T05:03:46.245Z,64.16
2023-05-19T05:04:46.125Z,64.31
2023-05-19T05:05:46.132Z,61.52
2023-05-19T05:06:46.109Z,54.43
2023-05-19T05:07:46.117Z,58.00
2023-05-19T05:08:46.127Z,59.03
2023-05-19T05:09:46.100Z,55.80
2023-05-19T05:10:46.090Z,54.98
2023-05-19T05:11:46.092Z,56.87
2023-05-19T05:12:46.084Z,57.19
2023-05-19T05:13:46.076Z,55.66
2023-05-19T05:14:46.117Z,58.44
2023-05-19T05:15:46.055Z,57.21
2023-05-19T05:16:46.120Z,58.40
2023-05-19T05:17:46.071Z,59.05
2023-05-19T05:18:46.061Z,57.96
2023-05-19T05:19:46.051Z,56.96
2023-05-19T05:20:46.019Z,56.81
2023-05-19T05:21:46.019Z,56.86
2023-05-19T05:22:46.008Z,57.27
2023-05-19T05:23:46.017Z,56.71
2023-05-19T05:24:46.006Z,56.22
2023-05-19T05:25:45.989Z,56.02
2023-05-19T05:26:45.989Z,56.40
2023-05-19T05:27:45.975Z,55.78
2023-05-19T05:28:45.972Z,55.61
2023-05-19T05:29:45.957Z,56.39
2023-05-19T05:30:46.005Z,56.79
2023-05-19T05:31:45.953Z,56.86
2023-05-19T05:32:45.996Z,56.04
2023-05-19T05:33:45.998Z,56.92
2023-05-19T05:34:45.952Z,56.48
2023-05-19T05:35:45.932Z,56.79
2023-05-19T05:36:45.909Z,58.91
2023-05-19T05:37:45.924Z,59.08
2023-05-19T05:38:45.906Z,56.79
2023-05-19T05:39:45.900Z,56.49
2023-05-19T05:40:45.889Z,55.84
2023-05-19T05:41:45.878Z,56.28
2023-05-19T05:42:45.882Z,57.12
2023-05-19T05:43:45.881Z,55.92
2023-05-19T05:44:45.854Z,58.53
2023-05-19T05:45:45.863Z,55.59
2023-05-19T05:46:45.858Z,57.55
2023-05-19T05:47:45.916Z,57.56
2023-05-19T05:48:45.836Z,58.46
2023-05-19T05:49:45.819Z,57.97
2023-05-19T05:50:45.849Z,58.28
2023-05-19T05:51:54.712Z,55.72
2023-05-19T05:52:47.812Z,55.69
2023-05-19T05:53:45.804Z,54.79
2023-05-19T05:54:45.791Z,54.76
2023-05-19T05:55:45.804Z,54.35
2023-05-19T05:56:45.785Z,53.46
2023-05-19T05:57:45.774Z,55.16
2023-05-19T05:58:45.793Z,53.80
2023-05-19T05:59:45.769Z,52.96
2023-05-19T06:00:45.778Z,57.02
2023-05-19T06:01:45.756Z,55.69
2023-05-19T06:02:45.848Z,58.00
2023-05-19T06:03:46.002Z,54.54
2023-05-19T06:04:45.723Z,57.38
2023-05-19T06:05:45.814Z,55.37
2023-05-19T06:06:45.723Z,56.85
2023-05-19T06:07:45.712Z,57.04
2023-05-19T06:08:45.730Z,56.47
2023-05-19T06:09:45.684Z,55.78
2023-05-19T06:10:47.376Z,55.54
2023-05-19T06:11:46.702Z,56.71
2023-05-19T06:12:45.683Z,55.26
2023-05-19T06:13:46.475Z,56.05
2023-05-19T06:14:45.709Z,56.46
2023-05-19T06:15:45.914Z,57.18
2023-05-19T06:16:45.675Z,57.25
2023-05-19T06:17:45.689Z,56.54
2023-05-19T06:18:45.886Z,55.14
2023-05-19T06:19:45.623Z,55.83
2023-05-19T06:20:45.625Z,56.58
2023-05-19T06:21:45.627Z,56.28
2023-05-19T06:22:45.605Z,56.13
2023-05-19T06:23:45.628Z,55.92
2023-05-19T06:24:45.617Z,55.72
2023-05-19T06:25:46.488Z,54.80
2023-05-19T06:26:45.616Z,54.72
2023-05-19T06:27:45.584Z,54.35
2023-05-19T06:28:46.475Z,53.94
2023-05-19T06:29:45.581Z,55.18
2023-05-19T06:30:45.550Z,52.63
2023-05-19T06:31:45.570Z,52.35
2023-05-19T06:32:45.613Z,51.28
2023-05-19T06:33:45.552Z,51.28
2023-05-19T06:34:45.537Z,52.08
2023-05-19T06:35:45.557Z,50.45
2023-05-19T06:36:45.521Z,51.84
2023-05-19T06:37:45.516Z,50.80
2023-05-19T06:38:45.521Z,51.46
2023-05-19T06:39:45.490Z,53.00
2023-05-19T06:40:45.514Z,58.79
2023-05-19T06:41:45.473Z,63.03
2023-05-19T06:42:45.491Z,62.47
2023-05-19T06:43:45.494Z,62.18
2023-05-19T06:44:45.477Z,61.78
2023-05-19T06:45:45.449Z,62.17
2023-05-19T06:46:45.524Z,61.51
2023-05-19T06:47:45.502Z,61.70
2023-05-19T06:48:45.445Z,61.91
2023-05-19T06:49:45.431Z,61.18
2023-05-19T06:50:46.437Z,61.82
2023-05-19T06:51:45.427Z,61.86
2023-05-19T06:52:45.415Z,53.64
2023-05-19T06:53:45.417Z,52.22
2023-05-19T06:54:45.413Z,49.88
2023-05-19T06:55:57.899Z,48.91
2023-05-19T06:56:47.378Z,49.68
2023-05-19T06:57:45.375Z,52.81
2023-05-19T06:58:45.396Z,60.07
2023-05-19T06:59:45.361Z,58.86
2023-05-19T07:00:45.349Z,58.52
2023-05-19T07:01:45.391Z,58.65
2023-05-19T07:02:45.393Z,58.95
2023-05-19T07:03:45.398Z,59.31
2023-05-19T07:04:45.321Z,61.44
2023-05-19T07:05:45.328Z,62.10
2023-05-19T07:06:45.332Z,56.87
2023-05-19T07:07:45.301Z,48.21
2023-05-19T07:08:45.311Z,49.33
2023-05-19T07:09:45.289Z,49.31
2023-05-19T07:10:45.300Z,51.20
2023-05-19T07:11:45.269Z,49.76
2023-05-19T07:12:46.280Z,48.64
2023-05-19T07:13:45.280Z,50.31
2023-05-19T07:14:45.268Z,51.24
2023-05-19T07:15:45.282Z,50.98
2023-05-19T07:16:45.302Z,49.50
2023-05-19T07:17:45.296Z,51.70
2023-05-19T07:18:45.258Z,50.14
2023-05-19T07:19:45.252Z,49.72
2023-05-19T07:20:45.232Z,50.35
2023-05-19T07:21:45.213Z,50.70
2023-05-19T07:22:45.220Z,51.01
2023-05-19T07:23:45.202Z,51.45
2023-05-19T07:24:45.218Z,51.37
2023-05-19T07:25:45.201Z,50.27
2023-05-19T07:26:45.173Z,49.67
2023-05-19T07:27:46.169Z,49.00
2023-05-19T07:28:45.186Z,50.28
2023-05-19T07:29:45.161Z,49.24
2023-05-19T07:30:45.181Z,47.23
2023-05-19T07:31:45.149Z,49.46
2023-05-19T07:32:45.217Z,49.47
2023-05-19T07:33:45.140Z,48.34
2023-05-19T07:34:45.122Z,47.59
2023-05-19T07:35:45.137Z,45.03
2023-05-19T07:36:45.112Z,48.73
2023-05-19T07:37:45.107Z,47.79
2023-05-19T07:38:45.137Z,48.30
2023-05-19T07:39:45.104Z,48.43
2023-05-19T07:40:45.084Z,47.34
2023-05-19T07:41:45.094Z,46.30
2023-05-19T07:42:45.083Z,47.44
2023-05-19T07:43:45.071Z,46.74
2023-05-19T07:44:45.058Z,47.23
2023-05-19T07:45:45.063Z,45.96
2023-05-19T07:46:45.050Z,46.43
2023-05-19T07:47:45.046Z,48.83
2023-05-19T07:48:45.037Z,48.93
2023-05-19T07:49:45.031Z,47.40
2023-05-19T07:50:45.010Z,48.94
2023-05-19T07:51:45.018Z,47.91
2023-05-19T07:52:44.999Z,48.01
2023-05-19T07:53:45.004Z,46.69
2023-05-19T07:54:45.005Z,45.64
2023-05-19T07:55:44.995Z,49.20
2023-05-19T07:56:44.969Z,48.18
2023-05-19T07:57:44.987Z,49.20
2023-05-19T07:58:45.957Z,45.89
2023-05-19T07:59:44.974Z,44.71
2023-05-19T08:00:44.949Z,45.44
2023-05-19T08:01:44.942Z,47.03
2023-05-19T08:02:45.044Z,47.76
2023-05-19T08:03:45.002Z,48.57
2023-05-19T08:04:44.982Z,46.66
2023-05-19T08:05:44.932Z,46.41
2023-05-19T08:06:44.909Z,47.91
2023-05-19T08:07:44.907Z,47.26
2023-05-19T08:08:44.893Z,48.45
2023-05-19T08:09:44.878Z,48.25
2023-05-19T08:10:44.911Z,48.70
2023-05-19T08:11:44.888Z,49.22
2023-05-19T08:12:44.857Z,48.18
2023-05-19T08:13:44.858Z,47.50
2023-05-19T08:14:44.864Z,48.12
2023-05-19T08:15:44.944Z,48.27
2023-05-19T08:16:44.850Z,46.97
2023-05-19T08:17:44.868Z,49.20
2023-05-19T08:18:44.891Z,47.00
2023-05-19T08:19:44.820Z,49.85
2023-05-19T08:20:44.816Z,49.51
2023-05-19T08:21:44.843Z,49.53
2023-05-19T08:22:44.806Z,50.50
2023-05-19T08:23:44.804Z,48.22
2023-05-19T08:24:44.837Z,47.22
2023-05-19T08:25:44.794Z,50.44
2023-05-19T08:26:44.854Z,49.37
2023-05-19T08:27:44.773Z,47.48
2023-05-19T08:28:44.768Z,46.50
2023-05-19T08:29:44.753Z,50.60
2023-05-19T08:30:44.768Z,46.42
2023-05-19T08:31:44.776Z,47.87
2023-05-19T08:32:44.752Z,51.47
2023-05-19T08:33:44.727Z,48.07
2023-05-19T08:34:44.751Z,46.69
2023-05-19T08:35:44.757Z,48.87
2023-05-19T08:36:44.715Z,49.28
2023-05-19T08:37:44.744Z,48.50
2023-05-19T08:38:44.698Z,50.22
2023-05-19T08:39:44.689Z,48.05
2023-05-19T08:40:44.697Z,50.54
2023-05-19T08:41:44.679Z,48.19
2023-05-19T08:42:44.700Z,45.54
2023-05-19T08:43:44.676Z,45.63
2023-05-19T08:44:44.657Z,50.35
2023-05-19T08:45:44.657Z,46.40
2023-05-19T08:46:44.743Z,51.21
2023-05-19T08:47:44.684Z,48.20
2023-05-19T08:48:44.640Z,45.14
2023-05-19T08:49:44.654Z,49.26
2023-05-19T08:50:44.628Z,48.45
2023-05-19T08:51:44.616Z,49.86
2023-05-19T08:52:46.829Z,46.94
2023-05-19T08:53:44.607Z,49.35
2023-05-19T08:54:44.629Z,49.43
2023-05-19T08:55:44.595Z,49.06
2023-05-19T08:56:44.623Z,51.15
2023-05-19T08:57:44.568Z,50.24
2023-05-19T08:58:44.569Z,48.84
2023-05-19T08:59:44.586Z,48.95
2023-05-19T09:00:44.576Z,48.71
2023-05-19T09:01:44.572Z,50.76
2023-05-19T09:02:55.034Z,51.19
2023-05-19T09:03:46.643Z,48.36
2023-05-19T09:04:44.640Z,50.71
2023-05-19T09:05:44.602Z,49.05
2023-05-19T09:06:44.539Z,49.85
2023-05-19T09:07:44.524Z,48.99
2023-05-19T09:08:44.516Z,47.98
2023-05-19T09:09:44.958Z,50.61
2023-05-19T09:10:44.512Z,51.56
2023-05-19T09:11:44.498Z,48.80
2023-05-19T09:12:44.484Z,51.46
2023-05-19T09:13:44.483Z,51.49
2023-05-19T09:14:44.475Z,50.75
2023-05-19T09:15:44.480Z,51.95
2023-05-19T09:16:44.504Z,50.27
2023-05-19T09:17:44.552Z,51.64
2023-05-19T09:18:44.507Z,51.31
2023-05-19T09:19:44.448Z,50.66
2023-05-19T09:20:44.462Z,50.73
2023-05-19T09:21:44.690Z,52.08
2023-05-19T09:22:45.434Z,51.26
2023-05-19T09:23:44.420Z,51.55
2023-05-19T09:24:44.414Z,50.09
2023-05-19T09:25:44.416Z,51.19
2023-05-19T09:26:44.400Z,50.46
2023-05-19T09:27:45.404Z,50.42
2023-05-19T09:28:44.394Z,50.93
2023-05-19T09:29:44.404Z,49.65
2023-05-19T09:30:44.377Z,49.17
2023-05-19T09:31:44.428Z,50.88
2023-05-19T09:32:44.731Z,51.88
2023-05-19T09:33:46.012Z,51.47
2023-05-19T09:34:45.346Z,49.30
2023-05-19T09:35:44.366Z,49.32
2023-05-19T09:36:44.358Z,48.72
2023-05-19T09:37:44.327Z,47.53
2023-05-19T09:38:44.342Z,49.32
2023-05-19T09:39:44.349Z,49.31
2023-05-19T09:40:44.318Z,50.70
2023-05-19T09:41:44.338Z,48.42
2023-05-19T09:42:44.325Z,51.57
2023-05-19T09:43:44.313Z,49.58
2023-05-19T09:44:44.299Z,48.21
2023-05-19T09:45:44.334Z,47.23
2023-05-19T09:46:44.515Z,50.42
2023-05-19T09:47:44.330Z,50.07
2023-05-19T09:48:44.270Z,50.93
2023-05-19T09:49:44.263Z,50.40
2023-05-19T09:50:44.260Z,48.35
2023-05-19T09:51:44.253Z,49.98
2023-05-19T09:52:44.255Z,48.15
2023-05-19T09:53:44.221Z,50.46
2023-05-19T09:54:44.263Z,49.49
2023-05-19T09:55:44.240Z,50.15
2023-05-19T09:56:44.214Z,48.75
2023-05-19T09:57:44.314Z,48.04
2023-05-19T09:58:44.206Z,48.45
2023-05-19T09:59:44.214Z,48.72
2023-05-19T10:00:44.215Z,49.23
2023-05-19T10:01:44.292Z,49.57
2023-05-19T10:02:44.343Z,49.18
2023-05-19T10:03:44.185Z,48.90
2023-05-19T10:04:44.252Z,48.23
2023-05-19T10:05:44.164Z,48.91
2023-05-19T10:06:44.165Z,48.15
2023-05-19T10:07:44.144Z,48.34
2023-05-19T10:08:44.176Z,50.60
2023-05-19T10:09:44.150Z,50.19
2023-05-19T10:10:44.146Z,47.18
2023-05-19T10:11:44.151Z,46.66
2023-05-19T10:12:44.121Z,47.90
2023-05-19T10:13:44.116Z,48.37
2023-05-19T10:14:44.105Z,47.66
2023-05-19T10:15:57.337Z,48.87
2023-05-19T10:16:46.112Z,48.93
2023-05-19T10:17:44.132Z,49.12
2023-05-19T10:18:44.105Z,47.97
2023-05-19T10:19:44.069Z,50.07
2023-05-19T10:20:44.069Z,49.00
2023-05-19T10:21:44.066Z,47.85
2023-05-19T10:22:44.074Z,50.05
2023-05-19T10:23:44.081Z,51.41
2023-05-19T10:24:44.044Z,49.48
2023-05-19T10:25:44.038Z,49.34
2023-05-19T10:26:44.033Z,49.96
2023-05-19T10:27:44.084Z,49.69
2023-05-19T10:28:44.053Z,49.54
2023-05-19T10:29:44.016Z,49.66
2023-05-19T10:30:44.002Z,49.58
2023-05-19T10:31:45.013Z,49.71
2023-05-19T10:32:44.066Z,51.43
2023-05-19T10:33:44.017Z,48.98
2023-05-19T10:34:43.999Z,49.18
2023-05-19T10:35:45.202Z,48.70
2023-05-19T10:36:43.958Z,48.90
2023-05-19T10:37:44.000Z,49.66
2023-05-19T10:38:43.975Z,46.78
2023-05-19T10:39:43.964Z,50.34
2023-05-19T10:40:43.936Z,49.26
2023-05-19T10:41:45.015Z,50.33
2023-05-19T10:42:43.924Z,47.09
2023-05-19T10:43:43.926Z,46.70
2023-05-19T10:44:43.930Z,49.06
2023-05-19T10:45:43.920Z,47.85
2023-05-19T10:46:43.955Z,48.63
2023-05-19T10:47:43.918Z,50.16
2023-05-19T10:48:43.894Z,49.49
2023-05-19T10:49:43.893Z,46.98
2023-05-19T10:50:43.892Z,49.16
2023-05-19T10:51:43.875Z,49.41
2023-05-19T10:52:43.865Z,48.92
2023-05-19T10:53:43.855Z,50.24
2023-05-19T10:54:43.871Z,48.63
2023-05-19T10:55:43.859Z,48.89
2023-05-19T10:56:43.844Z,50.18
2023-05-19T10:57:43.841Z,45.57
2023-05-19T10:58:43.842Z,45.52
2023-05-19T10:59:43.841Z,45.65
2023-05-19T11:00:43.832Z,45.27
2023-05-19T11:01:43.842Z,44.75
2023-05-19T11:02:43.909Z,44.23
2023-05-19T11:03:43.836Z,47.53
2023-05-19T11:04:43.830Z,46.16
2023-05-19T11:05:43.805Z,46.11
2023-05-19T11:06:43.811Z,46.44
2023-05-19T11:07:43.772Z,47.29
2023-05-19T11:08:43.766Z,46.88
2023-05-19T11:09:43.774Z,48.77
2023-05-19T11:10:43.773Z,47.64
2023-05-19T11:11:43.809Z,46.92
2023-05-19T11:12:43.762Z,46.88
2023-05-19T11:13:43.822Z,49.03
2023-05-19T11:14:43.750Z,49.63
2023-05-19T11:15:43.732Z,49.39
2023-05-19T11:16:43.764Z,49.92
2023-05-19T11:17:43.726Z,51.28
2023-05-19T11:18:43.791Z,51.77
2023-05-19T11:19:43.720Z,50.41
2023-05-19T11:20:43.734Z,51.11
2023-05-19T11:21:43.722Z,49.81
2023-05-19T11:22:43.689Z,50.95
2023-05-19T11:23:43.717Z,48.91
2023-05-19T11:24:43.753Z,49.56
2023-05-19T11:25:43.681Z,48.33
2023-05-19T11:26:43.678Z,47.98
2023-05-19T11:27:43.680Z,47.92
2023-05-19T11:28:43.656Z,50.26
2023-05-19T11:29:43.645Z,47.17
2023-05-19T11:30:43.640Z,49.58
2023-05-19T11:31:43.702Z,47.66
2023-05-19T11:32:43.662Z,47.01
2023-05-19T11:33:43.624Z,51.42
2023-05-19T11:34:43.615Z,48.26
2023-05-19T11:35:43.602Z,48.85
2023-05-19T11:36:43.603Z,49.81
2023-05-19T11:37:43.629Z,49.20
2023-05-19T11:38:43.596Z,51.80
2023-05-19T11:39:43.594Z,47.80
2023-05-19T11:40:43.581Z,48.64
2023-05-19T11:41:43.597Z,48.74
2023-05-19T11:42:43.569Z,48.76
2023-05-19T11:43:43.596Z,48.17
2023-05-19T11:44:43.568Z,50.22
2023-05-19T11:45:43.592Z,47.90
2023-05-19T11:46:43.617Z,49.12
2023-05-19T11:48:00.114Z,48.61
2023-05-19T11:48:45.610Z,49.12
2023-05-19T11:49:43.529Z,50.25
2023-05-19T11:50:43.558Z,48.06
2023-05-19T11:51:43.530Z,48.43
2023-05-19T11:52:43.512Z,48.56
2023-05-19T11:53:43.530Z,50.83
2023-05-19T11:54:43.507Z,48.69
2023-05-19T11:55:43.518Z,49.84
2023-05-19T11:56:43.491Z,49.21
2023-05-19T11:57:49.606Z,49.74
2023-05-19T11:58:45.486Z,49.97
2023-05-19T11:59:43.483Z,53.11
2023-05-19T12:00:43.494Z,53.60
2023-05-19T12:01:43.501Z,53.74
2023-05-19T12:02:43.549Z,49.56
2023-05-19T12:03:43.486Z,49.68
2023-05-19T12:04:43.478Z,50.00
2023-05-19T12:05:44.085Z,48.31
2023-05-19T12:06:43.519Z,49.02
2023-05-19T12:07:43.431Z,48.26
2023-05-19T12:08:43.429Z,48.35
2023-05-19T12:09:43.437Z,53.12
2023-05-19T12:10:43.446Z,48.59
2023-05-19T12:11:43.414Z,53.99
2023-05-19T12:12:43.416Z,55.20
2023-05-19T12:13:43.395Z,51.28
2023-05-19T12:14:43.395Z,49.85
2023-05-19T12:15:43.477Z,48.79
2023-05-19T12:16:43.486Z,49.62
2023-05-19T12:17:43.377Z,50.28
2023-05-19T12:18:43.392Z,50.33
2023-05-19T12:19:43.377Z,49.49
2023-05-19T12:20:43.360Z,49.28
2023-05-19T12:21:43.359Z,50.51
2023-05-19T12:22:43.336Z,47.74
2023-05-19T12:23:43.353Z,47.73
2023-05-19T12:24:43.330Z,49.08
2023-05-19T12:25:43.325Z,50.12
2023-05-19T12:26:43.429Z,48.75
2023-05-19T12:27:43.310Z,47.84
2023-05-19T12:28:43.351Z,48.43
2023-05-19T12:29:43.298Z,51.60
2023-05-19T12:30:43.302Z,49.20
2023-05-19T12:31:43.325Z,53.00
2023-05-19T12:32:43.316Z,51.18
2023-05-19T12:33:43.394Z,49.26
2023-05-19T12:34:43.272Z,50.30
2023-05-19T12:35:43.285Z,51.38
2023-05-19T12:36:43.251Z,51.47
2023-05-19T12:37:44.255Z,51.97
2023-05-19T12:38:43.263Z,50.98
2023-05-19T12:39:43.241Z,49.80
2023-05-19T12:40:43.246Z,49.73
2023-05-19T12:41:43.238Z,48.97
2023-05-19T12:42:43.257Z,51.34
2023-05-19T12:43:43.219Z,51.31
2023-05-19T12:44:43.208Z,52.23
2023-05-19T12:45:43.191Z,50.97
2023-05-19T12:46:43.199Z,49.58
2023-05-19T12:47:43.227Z,52.23
2023-05-19T12:48:43.205Z,50.20
2023-05-19T12:49:43.178Z,50.61
2023-05-19T12:50:43.178Z,50.10
2023-05-19T12:51:43.159Z,54.22
2023-05-19T12:52:43.160Z,51.12